createdAt,value
2022-08-02T00:00:10.982Z,12.45
2022-08-02T00:02:37.817Z,12.40
2022-08-02T00:05:08.296Z,12.33
2022-08-02T00:07:41.135Z,12.30
2022-08-02T00:10:09.889Z,12.23
2022-08-02T00:12:36.851Z,12.17
2022-08-02T00:15:05.427Z,12.15
2022-08-02T00:17:32.086Z,12.17
2022-08-02T00:19:58.790Z,12.13
2022-08-02T00:22:25.670Z,12.02
2022-08-02T00:24:52.308Z,11.98
2022-08-02T00:27:20.800Z,11.97
2022-08-02T00:29:52.491Z,11.87
2022-08-02T00:32:20.344Z,11.79
2022-08-02T00:34:46.981Z,11.72
2022-08-02T00:37:13.860Z,11.68
2022-08-02T00:39:40.581Z,11.69
2022-08-02T00:42:07.739Z,11.73
2022-08-02T00:44:34.499Z,11.67
2022-08-02T00:47:04.433Z,11.61
2022-08-02T00:49:32.096Z,11.59
2022-08-02T00:52:00.426Z,11.57
2022-08-02T00:54:27.385Z,11.52
2022-08-02T00:56:54.116Z,11.53
2022-08-02T00:59:20.841Z,11.49
2022-08-02T01:01:56.675Z,11.43
2022-08-02T01:04:30.292Z,11.36
2022-08-02T01:07:01.210Z,11.33
2022-08-02T01:09:28.000Z,11.32
2022-08-02T01:11:54.709Z,11.27
2022-08-02T01:14:23.020Z,11.22
2022-08-02T01:17:04.068Z,11.20
2022-08-02T01:19:51.819Z,11.17
2022-08-02T01:23:00.585Z,11.11
2022-08-02T01:25:33.554Z,11.10
2022-08-02T01:28:11.998Z,11.16
2022-08-02T01:30:41.526Z,11.12
2022-08-02T01:33:08.592Z,11.06
2022-08-02T01:35:50.433Z,11.02
2022-08-02T01:38:26.218Z,10.98
2022-08-02T01:40:53.712Z,10.93
2022-08-02T01:43:21.624Z,10.91
2022-08-02T01:45:48.537Z,10.88
2022-08-02T01:48:18.347Z,10.85
2022-08-02T01:50:46.896Z,10.81
2022-08-02T01:53:14.296Z,10.79
2022-08-02T01:55:58.372Z,10.82
2022-08-02T01:58:30.060Z,10.82
2022-08-02T02:00:58.090Z,10.77
2022-08-02T02:03:25.901Z,10.77
2022-08-02T02:05:56.020Z,10.76
2022-08-02T02:08:30.284Z,10.71
2022-08-02T02:10:57.021Z,10.67
2022-08-02T02:13:33.208Z,10.63
2022-08-02T02:16:03.990Z,10.64
2022-08-02T02:18:31.006Z,10.62
2022-08-02T02:20:58.339Z,10.65
2022-08-02T02:23:26.700Z,10.66
2022-08-02T02:25:59.587Z,10.69
2022-08-02T02:28:31.639Z,10.72
2022-08-02T02:31:08.863Z,10.75
2022-08-02T02:33:40.444Z,10.76
2022-08-02T02:36:08.219Z,10.79
2022-08-02T02:38:36.455Z,10.80
2022-08-02T02:41:04.534Z,10.83
2022-08-02T02:43:32.988Z,10.87
2022-08-02T02:46:01.197Z,10.88
2022-08-02T02:48:28.012Z,10.85
2022-08-02T02:50:54.716Z,10.83
2022-08-02T02:53:22.757Z,10.82
2022-08-02T02:56:01.926Z,10.79
2022-08-02T02:58:30.635Z,10.71
2022-08-02T03:01:16.284Z,10.67
2022-08-02T03:03:44.916Z,10.62
2022-08-02T03:06:15.049Z,10.60
2022-08-02T03:08:42.523Z,10.57
2022-08-02T03:11:09.892Z,10.50
2022-08-02T03:13:37.739Z,10.44
2022-08-02T03:16:07.535Z,10.41
2022-08-02T03:18:38.406Z,10.43
2022-08-02T03:21:07.289Z,10.38
2022-08-02T03:23:34.674Z,10.35
2022-08-02T03:26:01.786Z,10.33
2022-08-02T03:28:28.542Z,10.33
2022-08-02T03:30:55.299Z,10.29
2022-08-02T03:33:22.519Z,10.27
2022-08-02T03:35:50.511Z,10.31
2022-08-02T03:38:29.063Z,10.26
2022-08-02T03:40:57.820Z,10.25
2022-08-02T03:43:25.141Z,10.23
2022-08-02T03:45:55.998Z,10.20
2022-08-02T03:48:34.897Z,10.19
2022-08-02T03:51:02.389Z,10.18
2022-08-02T03:53:29.602Z,10.16
2022-08-02T03:55:56.499Z,10.15
2022-08-02T03:58:24.157Z,10.19
2022-08-02T04:00:52.880Z,10.12
2022-08-02T04:03:19.834Z,10.09
2022-08-02T04:06:04.134Z,10.08
2022-08-02T04:08:37.669Z,10.11
2022-08-02T04:11:31.212Z,10.10
2022-08-02T04:14:03.895Z,10.10
2022-08-02T04:16:42.630Z,10.08
2022-08-02T04:19:15.213Z,10.10
2022-08-02T04:21:51.486Z,10.08
2022-08-02T04:24:24.392Z,10.12
2022-08-02T04:26:53.954Z,10.11
2022-08-02T04:29:24.532Z,10.16
2022-08-02T04:31:51.698Z,10.23
2022-08-02T04:34:20.462Z,10.30
2022-08-02T04:36:47.634Z,10.39
2022-08-02T04:39:15.133Z,10.51
2022-08-02T04:41:44.534Z,10.50
2022-08-02T04:44:12.168Z,10.49
2022-08-02T04:46:39.720Z,10.48
2022-08-02T04:49:06.645Z,10.49
2022-08-02T04:51:37.759Z,10.56
2022-08-02T04:54:06.338Z,10.58
2022-08-02T04:56:37.518Z,10.63
2022-08-02T04:59:04.175Z,10.67
2022-08-02T05:01:33.065Z,10.76
2022-08-02T05:04:00.341Z,10.78
2022-08-02T05:06:27.261Z,10.86
2022-08-02T05:08:53.962Z,11.01
2022-08-02T05:11:22.102Z,11.14
2022-08-02T05:13:58.700Z,11.19
2022-08-02T05:16:31.475Z,11.27
2022-08-02T05:19:02.242Z,11.28
2022-08-02T05:21:29.920Z,11.26
2022-08-02T05:23:56.879Z,11.32
2022-08-02T05:26:23.608Z,11.53
2022-08-02T05:28:50.230Z,11.77
2022-08-02T05:31:16.929Z,11.97
2022-08-02T05:33:43.738Z,12.11
2022-08-02T05:36:10.353Z,12.17
2022-08-02T05:38:37.778Z,12.25
2022-08-02T05:41:05.812Z,12.59
2022-08-02T05:43:32.666Z,13.12
2022-08-02T05:45:59.299Z,13.50
2022-08-02T05:48:31.085Z,13.89
2022-08-02T05:51:13.078Z,14.00
2022-08-02T05:53:48.606Z,13.98
2022-08-02T05:56:28.671Z,14.02
2022-08-02T05:59:16.507Z,14.17
2022-08-02T06:01:43.987Z,14.45
2022-08-02T06:04:11.865Z,14.72
2022-08-02T06:06:43.934Z,14.98
2022-08-02T06:09:15.673Z,15.32
2022-08-02T06:12:02.661Z,16.37
2022-08-02T06:14:33.534Z,18.25
2022-08-02T06:17:09.676Z,19.71
2022-08-02T06:19:51.988Z,20.12
2022-08-02T06:22:40.609Z,20.54
2022-08-02T06:25:11.618Z,20.76
2022-08-02T06:27:55.092Z,20.76
2022-08-02T06:30:22.187Z,20.65
2022-08-02T06:32:51.597Z,20.57
2022-08-02T06:35:18.487Z,20.49
2022-08-02T06:37:51.469Z,20.56
2022-08-02T06:40:44.180Z,20.61
2022-08-02T06:43:16.719Z,20.60
2022-08-02T06:45:43.735Z,20.83
2022-08-02T06:48:10.711Z,20.95
2022-08-02T06:50:38.857Z,21.01
2022-08-02T06:53:06.337Z,20.98
2022-08-02T06:55:33.217Z,21.11
2022-08-02T06:58:10.539Z,21.08
2022-08-02T07:00:37.234Z,21.18
2022-08-02T07:03:04.889Z,21.23
2022-08-02T07:05:31.517Z,21.42
2022-08-02T07:07:58.143Z,21.75
2022-08-02T07:10:25.158Z,22.16
2022-08-02T07:12:51.814Z,22.48
2022-08-02T07:15:18.406Z,22.65
2022-08-02T07:17:45.047Z,22.64
2022-08-02T07:20:13.357Z,22.57
2022-08-02T07:22:40.019Z,22.01
2022-08-02T07:25:07.160Z,22.01
2022-08-02T07:27:34.079Z,22.26
2022-08-02T07:30:00.724Z,22.46
2022-08-02T07:32:30.227Z,21.93
2022-08-02T07:34:57.227Z,22.27
2022-08-02T07:37:54.230Z,22.17
2022-08-02T07:40:20.385Z,22.41
2022-08-02T07:42:49.726Z,22.42
2022-08-02T07:45:16.561Z,22.71
2022-08-02T07:47:44.743Z,23.08
2022-08-02T07:50:12.666Z,23.41
2022-08-02T07:52:40.826Z,23.45
2022-08-02T07:55:08.806Z,23.74
2022-08-02T07:57:36.361Z,23.43
2022-08-02T08:00:04.759Z,23.64
2022-08-02T08:02:31.420Z,23.83
2022-08-02T08:04:58.558Z,23.60
2022-08-02T08:07:25.512Z,23.85
2022-08-02T08:09:56.655Z,23.56
2022-08-02T08:12:23.849Z,24.17
2022-08-02T08:14:50.560Z,24.46
2022-08-02T08:17:17.427Z,24.18
2022-08-02T08:19:50.833Z,24.15
2022-08-02T08:22:19.983Z,23.85
2022-08-02T08:24:48.094Z,23.06
2022-08-02T08:27:15.691Z,23.44
2022-08-02T08:29:43.077Z,23.64
2022-08-02T08:32:15.827Z,24.04
2022-08-02T08:34:43.756Z,24.21
2022-08-02T08:37:16.786Z,24.41
2022-08-02T08:39:56.586Z,24.84
2022-08-02T08:42:28.483Z,24.90
2022-08-02T08:44:56.610Z,24.26
2022-08-02T08:47:26.634Z,24.74
2022-08-02T08:50:04.585Z,24.75
2022-08-02T08:52:35.938Z,25.04
2022-08-02T08:55:04.692Z,25.27
2022-08-02T08:57:32.396Z,25.28
2022-08-02T08:59:59.221Z,25.38
2022-08-02T09:02:28.344Z,25.36
2022-08-02T09:04:55.740Z,25.19
2022-08-02T09:07:23.433Z,25.26
2022-08-02T09:09:50.090Z,25.63
2022-08-02T09:12:22.232Z,25.68
2022-08-02T09:14:50.140Z,25.18
2022-08-02T09:17:17.926Z,25.17
2022-08-02T09:19:46.018Z,25.47
2022-08-02T09:22:15.295Z,25.76
2022-08-02T09:24:48.383Z,25.08
2022-08-02T09:27:17.629Z,25.49
2022-08-02T09:32:46.553Z,25.96
2022-08-02T09:35:15.169Z,26.31
2022-08-02T09:38:16.874Z,26.45
2022-08-02T09:45:16.567Z,26.91
2022-08-02T09:47:49.126Z,27.17
2022-08-02T09:50:15.726Z,27.28
2022-08-02T09:52:44.039Z,26.97
2022-08-02T09:55:11.822Z,27.20
2022-08-02T09:57:38.762Z,27.42
2022-08-02T10:00:16.156Z,27.61
2022-08-02T10:03:11.111Z,27.76
2022-08-02T10:06:01.184Z,27.96
2022-08-02T10:08:33.068Z,27.99
2022-08-02T10:11:01.058Z,27.70
2022-08-02T10:13:32.082Z,27.23
2022-08-02T10:15:58.984Z,27.32
2022-08-02T10:18:38.294Z,27.48
2022-08-02T10:21:08.102Z,27.69
2022-08-02T10:23:36.567Z,27.40
2022-08-02T10:26:03.471Z,27.42
2022-08-02T10:28:31.668Z,27.56
2022-08-02T10:30:59.976Z,27.78
2022-08-02T10:33:28.002Z,28.13
2022-08-02T10:36:04.517Z,28.23
2022-08-02T10:38:35.155Z,28.26
2022-08-02T10:41:01.821Z,28.39
2022-08-02T10:43:31.426Z,28.15
2022-08-02T10:46:33.461Z,28.14
2022-08-02T10:49:38.006Z,27.93
2022-08-02T10:52:02.684Z,28.14
2022-08-02T10:54:40.938Z,27.96
2022-08-02T10:57:21.582Z,28.05
2022-08-02T10:59:50.129Z,27.86
2022-08-02T11:02:33.314Z,28.03
2022-08-02T11:04:59.886Z,28.22
2022-08-02T11:07:38.254Z,27.85
2022-08-02T11:10:30.569Z,28.23
2022-08-02T11:13:06.429Z,28.55
2022-08-02T11:15:48.288Z,28.26
2022-08-02T11:18:15.341Z,27.90
2022-08-02T11:20:42.080Z,28.15
2022-08-02T11:23:45.052Z,27.90
2022-08-02T11:26:30.879Z,28.27
2022-08-02T11:28:58.233Z,28.21
2022-08-02T11:31:29.005Z,28.37
2022-08-02T11:33:55.816Z,28.41
2022-08-02T11:36:24.459Z,28.35
2022-08-02T11:39:09.014Z,28.79
2022-08-02T11:41:46.106Z,28.63
2022-08-02T11:44:13.580Z,28.51
2022-08-02T11:46:40.680Z,28.42
2022-08-02T11:49:16.083Z,28.27
2022-08-02T11:52:01.833Z,28.40
2022-08-02T11:54:31.732Z,28.58
2022-08-02T11:57:19.377Z,28.48
2022-08-02T11:59:49.416Z,28.46
2022-08-02T12:02:17.643Z,28.50
2022-08-02T12:05:03.541Z,28.73
2022-08-02T12:07:36.273Z,28.29
2022-08-02T12:10:06.688Z,28.10
2022-08-02T12:12:33.637Z,28.34
2022-08-02T12:15:00.294Z,28.53
2022-08-02T12:17:47.743Z,28.42
2022-08-02T12:20:14.911Z,28.52
2022-08-02T12:22:42.025Z,28.69
2022-08-02T12:25:33.585Z,28.66
2022-08-02T12:28:34.991Z,28.69
2022-08-02T12:31:02.085Z,28.76
2022-08-02T12:33:45.398Z,28.60
2022-08-02T12:36:23.239Z,27.81
2022-08-02T12:39:00.897Z,27.94
2022-08-02T12:41:30.959Z,27.86
2022-08-02T12:43:59.710Z,28.29
2022-08-02T12:46:26.815Z,28.19
2022-08-02T12:49:16.490Z,28.03
2022-08-02T12:51:55.630Z,28.30
2022-08-02T12:54:31.712Z,28.28
2022-08-02T12:57:11.156Z,28.61
2022-08-02T12:59:39.830Z,28.37
2022-08-02T13:02:08.703Z,28.18
2022-08-02T13:04:35.539Z,28.34
2022-08-02T13:07:02.932Z,28.54
2022-08-02T13:09:36.191Z,28.57
2022-08-02T13:12:03.592Z,28.51
2022-08-02T13:14:30.352Z,28.65
2022-08-02T13:16:57.021Z,28.85
2022-08-02T13:19:23.682Z,28.92
2022-08-02T13:22:00.973Z,28.82
2022-08-02T13:24:40.641Z,28.92
2022-08-02T13:27:21.151Z,28.80
2022-08-02T13:29:49.263Z,28.87
2022-08-02T13:32:16.645Z,28.73
2022-08-02T13:34:44.019Z,28.82
2022-08-02T16:08:10.246Z,27.34
2022-08-02T16:10:36.863Z,27.28
2022-08-02T16:13:23.402Z,27.13
2022-08-02T16:15:50.571Z,26.94
2022-08-02T16:18:17.193Z,26.83
2022-08-02T16:20:43.809Z,26.79
2022-08-02T16:23:10.379Z,26.67
2022-08-02T16:25:41.975Z,26.81
2022-08-02T16:28:08.875Z,26.82
2022-08-02T16:30:35.863Z,26.68
2022-08-02T16:33:02.834Z,26.67
2022-08-02T16:35:29.496Z,26.73
2022-08-02T16:37:56.454Z,26.67
2022-08-02T16:40:23.156Z,26.63
2022-08-02T16:42:50.525Z,26.70
2022-08-02T16:45:24.279Z,26.58
2022-08-02T16:48:00.499Z,26.56
2022-08-02T16:50:29.991Z,26.58
2022-08-02T16:52:57.775Z,26.62
2022-08-02T16:55:25.512Z,26.57
2022-08-02T16:57:52.768Z,26.51
2022-08-02T17:00:24.292Z,26.40
2022-08-02T17:02:51.020Z,26.41
2022-08-02T17:05:18.187Z,26.36
2022-08-02T17:08:10.475Z,26.27
2022-08-02T17:10:34.639Z,26.22
2022-08-02T17:13:12.149Z,25.99
2022-08-02T17:16:16.187Z,25.96
2022-08-02T17:18:28.641Z,25.86
2022-08-02T17:20:55.633Z,25.74
2022-08-02T17:23:22.364Z,25.70
2022-08-02T17:25:52.490Z,25.70
2022-08-02T17:28:19.497Z,25.59
2022-08-02T17:30:46.150Z,25.53
2022-08-02T17:33:13.120Z,25.38
2022-08-02T17:35:52.085Z,25.34
2022-08-02T17:41:06.942Z,25.17
2022-08-02T17:43:41.884Z,25.07
2022-08-02T17:46:08.656Z,25.01
2022-08-02T17:48:55.558Z,24.91
2022-08-02T17:52:15.897Z,24.77
2022-08-02T17:54:12.855Z,24.63
2022-08-02T17:56:42.313Z,24.51
2022-08-02T17:59:20.691Z,24.34
2022-08-02T18:01:52.907Z,24.21
2022-08-02T18:04:20.258Z,24.06
2022-08-02T18:06:59.827Z,23.96
2022-08-02T18:09:31.752Z,23.86
2022-08-02T18:11:58.473Z,23.74
2022-08-02T18:14:26.371Z,23.64
2022-08-02T18:16:53.403Z,23.46
2022-08-02T18:19:20.496Z,23.31
2022-08-02T18:21:48.117Z,23.18
2022-08-02T18:24:15.809Z,23.06
2022-08-02T18:26:43.432Z,22.93
2022-08-02T18:29:12.197Z,22.80
2022-08-02T18:31:40.153Z,22.74
2022-08-02T18:34:17.466Z,22.60
2022-08-02T18:36:47.164Z,22.45
2022-08-02T18:39:15.031Z,22.32
2022-08-02T18:41:44.288Z,22.22
2022-08-02T18:44:15.880Z,22.05
2022-08-02T18:46:43.384Z,21.92
2022-08-02T18:49:15.221Z,21.81
2022-08-02T18:51:42.891Z,21.73
2022-08-02T18:54:09.933Z,21.66
2022-08-02T18:56:38.870Z,21.59
2022-08-02T18:59:07.509Z,21.51
2022-08-02T19:01:39.483Z,21.44
2022-08-02T19:04:13.435Z,21.35
2022-08-02T19:06:40.092Z,21.21
2022-08-02T19:09:13.251Z,21.08
2022-08-02T19:11:54.224Z,20.99
2022-08-02T19:14:27.223Z,20.94
2022-08-02T19:16:54.823Z,20.81
2022-08-02T19:19:22.153Z,20.72
2022-08-02T19:22:17.946Z,20.67
2022-08-02T19:24:37.016Z,20.60
2022-08-02T19:27:13.422Z,20.55
2022-08-02T19:29:48.982Z,20.44
2022-08-02T19:32:42.722Z,20.36
2022-08-02T19:35:19.291Z,20.32
2022-08-02T19:37:53.985Z,20.25
2022-08-02T19:40:24.187Z,20.16
2022-08-02T19:44:21.504Z,20.11
2022-08-02T19:45:49.113Z,20.04
2022-08-02T19:48:17.975Z,19.95
2022-08-02T19:50:56.713Z,19.89
2022-08-02T19:53:28.749Z,19.85
2022-08-02T19:56:00.440Z,19.76
2022-08-02T19:58:28.611Z,19.68
2022-08-02T20:00:55.295Z,19.63
2022-08-02T20:03:52.076Z,19.55
2022-08-02T20:06:08.580Z,19.46
2022-08-02T20:08:37.506Z,19.41
2022-08-02T20:11:04.164Z,19.34
2022-08-02T20:13:34.562Z,19.27
2022-08-02T20:16:20.739Z,19.26
2022-08-02T20:18:54.239Z,19.23
2022-08-02T20:21:36.132Z,19.20
2022-08-02T20:24:09.284Z,19.14
2022-08-02T20:26:38.179Z,19.10
2022-08-02T20:29:05.309Z,19.06
2022-08-02T20:31:32.413Z,19.03
2022-08-02T20:33:59.131Z,18.97
2022-08-02T20:36:26.604Z,18.91
2022-08-02T20:38:54.341Z,18.86
2022-08-02T20:41:37.299Z,18.84
2022-08-02T20:44:16.100Z,18.80
2022-08-02T20:46:56.775Z,18.77
2022-08-02T20:52:19.475Z,18.68
2022-08-02T20:54:51.230Z,18.63
2022-08-02T20:57:17.849Z,18.54
2022-08-02T20:59:44.456Z,18.51
2022-08-02T21:02:19.191Z,18.46
2022-08-02T21:04:49.923Z,18.36
2022-08-02T21:07:17.964Z,18.31
2022-08-02T21:09:52.818Z,18.26
2022-08-02T21:12:29.692Z,18.20
2022-08-02T21:14:56.734Z,18.15
2022-08-02T21:17:27.109Z,18.10
2022-08-02T21:20:10.554Z,18.03
2022-08-02T21:22:37.567Z,18.04
2022-08-02T21:25:09.054Z,17.95
2022-08-02T21:27:53.198Z,17.91
2022-08-02T21:30:21.598Z,17.83
2022-08-02T21:32:54.477Z,17.76
2022-08-02T21:35:22.669Z,17.69
2022-08-02T21:37:50.116Z,17.67
2022-08-02T21:40:24.999Z,17.62
2022-08-02T21:42:51.654Z,17.60
2022-08-02T21:45:20.005Z,17.56
2022-08-02T21:47:46.941Z,17.56
2022-08-02T21:50:16.266Z,17.57
2022-08-02T21:52:51.044Z,17.58
2022-08-02T21:55:21.288Z,17.58
2022-08-02T21:57:51.250Z,17.59
2022-08-02T22:00:18.007Z,17.60
2022-08-02T22:02:55.464Z,17.62
2022-08-02T22:05:22.169Z,17.64
2022-08-02T22:07:48.856Z,17.66
2022-08-02T22:10:17.347Z,17.66
2022-08-02T22:12:44.034Z,17.69
2022-08-02T22:15:11.658Z,17.70
2022-08-02T22:17:51.235Z,17.70
2022-08-02T22:20:21.291Z,17.71
2022-08-02T22:22:50.472Z,17.72
2022-08-02T22:25:26.615Z,17.75
2022-08-02T22:28:36.379Z,17.76
2022-08-02T22:30:56.842Z,17.78
2022-08-02T22:33:47.217Z,17.79
2022-08-02T22:36:28.203Z,17.78
2022-08-02T22:38:55.239Z,17.79
2022-08-02T22:41:22.544Z,17.80
2022-08-02T22:43:49.851Z,17.80
2022-08-02T22:46:16.797Z,17.80
2022-08-02T22:48:44.454Z,17.81
2022-08-02T22:51:13.039Z,17.80
2022-08-02T22:53:40.585Z,17.78
2022-08-02T22:56:07.312Z,17.77
2022-08-02T22:58:39.406Z,25.29
2022-08-02T22:59:06.358Z,17.74
2022-08-02T22:59:08.008Z,18.72
2022-08-02T23:01:21.741Z,17.73
2022-08-02T23:03:48.457Z,17.73
2022-08-02T23:06:17.463Z,17.72
2022-08-02T23:08:44.080Z,17.72
2022-08-02T23:11:14.210Z,17.73
2022-08-02T23:13:41.531Z,17.72
2022-08-02T23:16:26.714Z,17.72
2022-08-02T23:19:11.929Z,17.72
2022-08-02T23:22:00.923Z,17.73
2022-08-02T23:24:26.686Z,17.74
2022-08-02T23:26:53.512Z,17.75
2022-08-02T23:29:20.177Z,17.75
2022-08-02T23:31:46.861Z,17.71
2022-08-02T23:34:13.583Z,17.70
2022-08-02T23:36:40.623Z,17.71
2022-08-02T23:39:07.284Z,17.71
2022-08-02T23:41:34.744Z,17.72
2022-08-02T23:44:13.394Z,17.71
2022-08-02T23:46:44.699Z,17.71
2022-08-02T23:49:11.949Z,17.71
2022-08-02T23:51:38.638Z,17.75
2022-08-02T23:54:05.256Z,17.80
2022-08-02T23:56:31.830Z,17.83
2022-08-02T23:58:58.421Z,17.83
